Time;durP1;ratioP1;P1;durP2;ratioP2;P2;SDS_P1;SDS_P2;PMS_P1;PMS_P2;Temp;Humidity;BMP_temperature;BMP_pressure;BME280_temperature;BME280_humidity;BME280_pressure;Samples;Min_cycle;Max_cycle;Signal;HPM_P1;HPM_P2
2021/08/11 00:03:16;;;;;;;0.10;0.10;;;;;;;13.13;96.79;101830.31;10379840;28;20439;-64
2021/08/11 00:08:17;;;;;;;0.10;0.10;;;;;;;13.09;96.74;101828.09;10393324;28;20029;-63
2021/08/11 00:13:17;;;;;;;0.10;0.10;;;;;;;13.02;96.53;101840.38;10409181;28;20055;-64
2021/08/11 00:18:17;;;;;;;0.10;0.10;;;;;;;12.95;96.92;101842.81;10377847;28;20034;-62
2021/08/11 00:23:17;;;;;;;0.10;0.10;;;;;;;12.89;97.19;101832.72;10390388;28;20045;-62
2021/08/11 00:28:18;;;;;;;0.10;0.10;;;;;;;12.81;96.64;101840.66;10409493;23;20501;-63
2021/08/11 00:33:19;;;;;;;0.10;0.10;;;;;;;12.75;96.50;101841.25;10460006;28;20167;-63
2021/08/11 00:38:22;;;;;;;0.10;0.10;;;;;;;12.66;96.53;101838.47;10459176;28;20029;-61
2021/08/11 00:43:22;;;;;;;0.10;0.10;;;;;;;12.61;96.66;101842.56;10459661;28;20507;-62
2021/08/11 00:48:25;;;;;;;0.10;0.10;;;;;;;12.57;96.82;101849.22;10459429;28;20038;-62
2021/08/11 00:53:27;;;;;;;0.10;0.10;;;;;;;12.52;97.03;101843.47;10458832;28;20484;-63
2021/08/11 00:58:29;;;;;;;0.10;0.10;;;;;;;12.49;97.17;101841.09;10458292;28;20103;-63
2021/08/11 01:03:30;;;;;;;0.05;0.05;;;;;;;12.45;97.23;101844.06;10459045;28;20036;-62
2021/08/11 01:08:31;;;;;;;0.10;0.10;;;;;;;12.40;97.35;101842.81;10457887;28;20033;-63
2021/08/11 01:13:33;;;;;;;0.10;0.10;;;;;;;12.35;97.15;101835.22;10458453;28;20037;-63
2021/08/11 01:18:33;;;;;;;0.10;0.10;;;;;;;12.32;97.40;101845.34;10459680;28;20032;-63
2021/08/11 01:23:44;;;;;;;0.10;0.10;;;;;;;12.26;97.32;101844.09;10458973;28;20387;-63
2021/08/11 01:28:54;;;;;;;0.08;0.08;;;;;;;12.24;97.83;101838.91;10441273;28;20245;-63
2021/08/11 01:34:19;;;;;;;0.00;0.00;;;;;;;12.28;98.24;101838.63;10458558;28;20545;-63
2021/08/11 01:39:30;;;;;;;0.10;0.10;;;;;;;12.28;98.03;101850.16;10459033;28;20457;-62
2021/08/11 01:45:12;;;;;;;0.08;0.08;;;;;;;12.24;97.87;101848.75;10458659;28;20141;-62
2021/08/11 01:50:15;;;;;;;0.10;0.10;;;;;;;12.22;98.03;101856.91;10431315;28;20115;-62
2021/08/11 01:55:16;;;;;;;0.10;0.10;;;;;;;12.21;98.15;101855.22;10458128;28;20033;-62
2021/08/11 02:00:18;;;;;;;0.10;0.10;;;;;;;12.20;98.32;101856.22;10459058;28;20473;-63
2021/08/11 02:05:24;;;;;;;0.10;0.10;;;;;;;12.19;98.33;101851.03;10455598;28;20037;-63
2021/08/11 02:10:27;;;;;;;0.10;0.10;;;;;;;12.18;98.40;101857.34;10455936;28;20068;-62
2021/08/11 02:15:28;;;;;;;0.00;0.00;;;;;;;12.17;98.62;101853.84;10444038;28;20095;-63
2021/08/11 02:20:28;;;;;;;0.10;0.10;;;;;;;12.15;98.52;101850.47;10414345;28;20107;-62
2021/08/11 02:25:29;;;;;;;0.10;0.10;;;;;;;12.14;98.70;101847.94;10414156;28;20067;-61
2021/08/11 02:30:43;;;;;;;0.10;0.10;;;;;;;12.13;98.59;101852.44;10414338;28;20031;-62
2021/08/11 02:35:48;;;;;;;;;;;;;;;12.16;98.85;101854.00;10419149;28;20060;-62
2021/08/11 02:40:57;;;;;;;0.10;0.10;;;;;;;12.17;99.17;101861.84;10421691;28;19913;-62
2021/08/11 02:46:03;;;;;;;0.10;0.10;;;;;;;12.21;99.03;101865.91;10420273;28;20471;-64
2021/08/11 02:51:07;;;;;;;0.03;0.03;;;;;;;12.23;99.14;101863.09;10420415;28;20124;-62
2021/08/11 02:56:08;;;;;;;0.10;0.10;;;;;;;12.18;98.94;101871.53;10419814;28;20037;-64
2021/08/11 03:01:09;;;;;;;0.00;0.00;;;;;;;12.18;99.14;101870.69;10419345;28;20037;-63
2021/08/11 03:06:10;;;;;;;0.05;0.05;;;;;;;12.15;99.01;101874.50;10421601;28;20047;-62
2021/08/11 03:11:10;;;;;;;0.10;0.10;;;;;;;12.12;98.96;101876.63;10420778;28;20085;-63
2021/08/11 03:16:12;;;;;;;0.10;0.10;;;;;;;12.07;98.48;101879.75;10421182;28;20412;-63
2021/08/11 03:21:12;;;;;;;0.10;0.10;;;;;;;12.03;98.75;101883.66;10422111;28;20068;-62
2021/08/11 03:26:13;;;;;;;0.10;0.10;;;;;;;11.97;98.73;101884.22;10421404;28;20037;-62
2021/08/11 03:31:13;;;;;;;0.10;0.10;;;;;;;11.91;98.53;101882.97;10421631;28;20280;-61
2021/08/11 03:36:13;;;;;;;0.00;0.00;;;;;;;11.86;98.60;101882.53;10421021;28;20039;-62
2021/08/11 03:41:14;;;;;;;0.10;0.10;;;;;;;11.82;98.56;101885.63;10419406;28;20029;-61
2021/08/11 03:46:15;;;;;;;0.10;0.10;;;;;;;11.82;98.76;101878.47;10418202;28;20537;-63
2021/08/11 03:51:15;;;;;;;0.10;0.10;;;;;;;11.85;99.14;101883.53;10420732;28;20033;-62
2021/08/11 03:56:15;;;;;;;0.00;0.00;;;;;;;11.87;99.02;101886.06;10417447;28;20107;-62
2021/08/11 04:01:18;;;;;;;0.00;0.00;;;;;;;11.84;98.74;101888.97;10425334;28;20120;-63
2021/08/11 04:06:19;;;;;;;0.03;0.03;;;;;;;11.84;98.93;101876.50;10419034;28;20033;-65
2021/08/11 04:11:19;;;;;;;0.10;0.10;;;;;;;11.88;98.78;101885.09;10419245;28;20026;-64
2021/08/11 04:16:19;;;;;;;0.10;0.10;;;;;;;11.91;98.85;101882.97;10440013;28;20041;-64
2021/08/11 04:21:20;;;;;;;0.10;0.10;;;;;;;12.18;99.24;101887.56;10461318;28;20035;-64
2021/08/11 04:26:20;;;;;;;0.08;0.08;;;;;;;12.96;98.92;101892.63;10442324;28;20120;-63
2021/08/11 04:31:21;;;;;;;0.10;0.10;;;;;;;14.07;95.20;101892.41;10459671;28;20048;-63
2021/08/11 04:36:21;;;;;;;0.10;0.10;;;;;;;15.08;91.32;101893.50;10459637;28;20111;-63
2021/08/11 04:41:21;;;;;;;0.10;0.10;;;;;;;15.92;86.70;101901.56;10460584;28;20094;-63
2021/08/11 04:46:22;;;;;;;0.10;0.10;;;;;;;16.76;85.21;101900.25;10459904;28;20091;-63
2021/08/11 04:51:22;;;;;;;0.03;0.03;;;;;;;17.58;80.16;101892.56;10458983;28;20033;-63
2021/08/11 04:56:22;;;;;;;0.10;0.10;;;;;;;18.50;78.92;101891.59;10458724;28;20033;-63
2021/08/11 05:01:23;;;;;;;0.10;0.10;;;;;;;19.50;75.77;101900.97;10458487;28;20255;-63
2021/08/11 05:06:23;;;;;;;0.10;0.10;;;;;;;20.27;74.40;101898.31;10459029;28;20044;-63
2021/08/11 05:11:24;;;;;;;0.10;0.10;;;;;;;20.99;70.21;101897.09;10459141;28;20123;-63
2021/08/11 05:16:24;;;;;;;0.00;0.00;;;;;;;21.59;67.97;101891.88;10457947;28;20047;-62
2021/08/11 05:21:25;;;;;;;0.10;0.10;;;;;;;22.24;66.31;101894.84;10458878;28;20123;-63
2021/08/11 05:26:25;;;;;;;0.00;0.00;;;;;;;22.80;65.48;101883.41;10457379;28;20158;-64
2021/08/11 05:31:25;;;;;;;0.05;0.05;;;;;;;23.28;64.19;101893.88;10457320;28;20349;-63
2021/08/11 05:36:26;;;;;;;0.10;0.10;;;;;;;23.13;61.95;101903.38;10456766;28;20041;-63
2021/08/11 05:41:26;;;;;;;0.10;0.10;;;;;;;23.44;59.56;101897.97;10456608;28;20032;-63
2021/08/11 05:46:27;;;;;;;0.00;0.00;;;;;;;24.24;58.65;101907.44;10455900;28;20041;-63
2021/08/11 05:51:28;;;;;;;0.10;0.10;;;;;;;25.00;56.36;101898.84;10456289;28;20029;-64
2021/08/11 05:56:28;;;;;;;0.10;0.10;;;;;;;25.40;54.02;101911.97;10455789;28;20033;-63
2021/08/11 06:01:30;;;;;;;0.10;0.10;;;;;;;25.76;53.08;101910.16;10456713;28;20071;-62
2021/08/11 06:06:31;;;;;;;0.10;0.10;;;;;;;26.02;51.15;101908.09;10456999;28;20107;-64
2021/08/11 06:11:31;;;;;;;0.00;0.00;;;;;;;25.95;52.50;101909.06;10460964;28;20051;-63
2021/08/11 06:16:31;;;;;;;0.10;0.10;;;;;;;26.17;51.09;101909.28;10464458;28;20029;-64
2021/08/11 06:21:32;;;;;;;0.10;0.10;;;;;;;26.42;51.62;101919.16;10464415;28;20376;-64
2021/08/11 06:26:34;;;;;;;0.03;0.03;;;;;;;26.71;50.03;101919.28;10435234;28;20476;-63
2021/08/11 06:31:34;;;;;;;0.10;0.10;;;;;;;26.94;50.84;101921.13;10424831;23;20145;-64
2021/08/11 06:36:34;;;;;;;0.10;0.10;;;;;;;27.01;49.26;101921.78;10414310;28;20063;-63
2021/08/11 06:41:35;;;;;;;0.10;0.10;;;;;;;27.10;48.97;101928.53;10414441;28;20034;-63
2021/08/11 06:46:35;;;;;;;0.10;0.10;;;;;;;27.38;50.86;101925.03;10389844;28;20396;-63
2021/08/11 06:51:35;;;;;;;0.10;0.10;;;;;;;27.78;47.87;101924.09;10391389;28;20095;-63
2021/08/11 06:56:36;;;;;;;0.10;0.10;;;;;;;27.88;49.45;101932.50;10404445;28;20037;-63
2021/08/11 07:01:36;;;;;;;0.03;0.03;;;;;;;28.13;47.41;101925.75;10398503;28;20502;-62
2021/08/11 07:06:40;;;;;;;0.10;0.10;;;;;;;28.03;48.31;101936.56;10412905;28;20068;-63
2021/08/11 07:11:40;;;;;;;0.05;0.05;;;;;;;27.94;48.70;101938.88;10399371;28;20046;-63
2021/08/11 07:16:40;;;;;;;0.10;0.10;;;;;;;27.76;47.40;101937.19;10402993;28;20050;-61
2021/08/11 07:21:41;;;;;;;0.10;0.10;;;;;;;27.77;47.56;101938.84;10406725;28;20129;-61
2021/08/11 07:26:41;;;;;;;0.10;0.10;;;;;;;27.46;48.66;101942.94;10409666;28;20026;-61
2021/08/11 07:31:41;;;;;;;0.10;0.10;;;;;;;27.52;49.99;101951.00;10392652;28;20096;-60
2021/08/11 07:36:41;;;;;;;0.10;0.10;;;;;;;27.69;48.38;101942.84;10391542;28;20029;-63
2021/08/11 07:41:42;;;;;;;0.10;0.10;;;;;;;27.47;50.02;101952.81;10410352;28;20526;-61
2021/08/11 07:46:42;;;;;;;0.10;0.10;;;;;;;27.52;49.54;101953.75;10409062;28;20509;-60
2021/08/11 07:51:43;;;;;;;0.10;0.10;;;;;;;27.69;49.02;101952.94;10411577;28;20127;-61
2021/08/11 07:56:43;;;;;;;0.10;0.10;;;;;;;27.84;48.64;101957.88;10399686;28;20021;-61
2021/08/11 08:01:43;;;;;;;0.00;0.00;;;;;;;27.50;49.79;101955.06;10382352;28;20029;-61
2021/08/11 08:06:43;;;;;;;0.10;0.10;;;;;;;27.33;49.11;101960.47;10408292;28;20120;-61
2021/08/11 08:11:44;;;;;;;0.10;0.10;;;;;;;27.33;48.40;101955.00;10399420;28;20072;-61
2021/08/11 08:16:44;;;;;;;0.07;0.07;;;;;;;27.24;49.14;101957.31;10407588;28;20112;-61
2021/08/11 08:21:45;;;;;;;0.07;0.07;;;;;;;27.16;48.21;101968.63;10389006;28;20139;-61
2021/08/11 08:26:45;;;;;;;0.10;0.10;;;;;;;26.78;48.21;101966.41;10409924;28;20036;-61
2021/08/11 08:31:45;;;;;;;0.10;0.10;;;;;;;26.76;49.39;101972.16;10407323;28;20049;-61
2021/08/11 08:36:46;;;;;;;0.10;0.10;;;;;;;26.97;50.14;101964.38;10398610;28;20029;-61
2021/08/11 08:41:46;;;;;;;0.00;0.00;;;;;;;27.30;49.71;101978.22;10409724;28;20102;-60
2021/08/11 08:46:47;;;;;;;0.10;0.10;;;;;;;27.22;48.17;101972.28;10389969;28;20033;-60
2021/08/11 08:51:49;;;;;;;0.10;0.10;;;;;;;26.60;53.79;101973.69;10380270;28;20045;-61
2021/08/11 08:56:49;;;;;;;0.10;0.10;;;;;;;25.97;50.94;101980.59;10387878;28;20366;-60
2021/08/11 09:01:50;;;;;;;0.10;0.10;;;;;;;26.15;49.88;101982.44;10393777;28;20079;-60
2021/08/11 09:06:50;;;;;;;0.10;0.10;;;;;;;26.25;50.92;101989.22;10378547;28;20036;-59
2021/08/11 09:12:08;;;;;;;0.10;0.10;;;;;;;26.24;50.17;101988.38;10385169;28;20029;-61
2021/08/11 09:17:09;;;;;;;0.00;0.00;;;;;;;25.94;51.87;101993.88;10397014;28;20034;-61
2021/08/11 09:22:12;;;;;;;0.00;0.00;;;;;;;25.58;52.48;101995.66;10396538;28;20037;-61
2021/08/11 09:27:22;;;;;;;0.00;0.00;;;;;;;25.03;54.94;101995.69;10393496;28;20033;-61
2021/08/11 09:32:22;;;;;;;0.00;0.00;;;;;;;24.33;55.07;102004.09;10393918;28;20132;-61
2021/08/11 09:37:38;;;;;;;0.00;0.00;;;;;;;24.26;57.41;102004.16;10385060;28;20038;-61
2021/08/11 09:42:39;;;;;;;0.10;0.10;;;;;;;24.22;55.99;102002.91;10407375;28;20037;-61
2021/08/11 09:47:59;;;;;;;0.10;0.10;;;;;;;23.81;57.30;102004.25;10404783;28;20044;-60
2021/08/11 09:53:00;;;;;;;0.00;0.00;;;;;;;23.73;56.89;102004.50;10415899;28;20068;-60
2021/08/11 09:58:00;;;;;;;0.10;0.10;;;;;;;24.40;58.48;102011.16;10414538;28;20029;-61
2021/08/11 10:03:03;;;;;;;0.00;0.00;;;;;;;24.44;55.21;101999.88;10406696;28;20036;-61
2021/08/11 10:08:05;;;;;;;0.00;0.00;;;;;;;23.92;56.67;102009.00;10402217;28;20346;-61
2021/08/11 10:13:08;;;;;;;0.00;0.00;;;;;;;24.81;58.63;102003.47;10409879;28;20045;-61
2021/08/11 10:18:11;;;;;;;0.00;0.00;;;;;;;24.67;54.34;102007.38;10388939;28;20511;-61
2021/08/11 10:23:13;;;;;;;;;;;;;;;24.51;56.27;102003.34;10399854;28;20032;-60
2021/08/11 10:28:20;;;;;;;0.00;0.00;;;;;;;24.42;57.44;102008.22;10400147;28;19917;-61
2021/08/11 10:33:21;;;;;;;0.00;0.00;;;;;;;24.43;54.69;102004.44;10411929;28;20264;-60
2021/08/11 10:38:22;;;;;;;0.00;0.00;;;;;;;24.59;53.33;102001.16;10391445;28;20049;-61
2021/08/11 10:43:23;;;;;;;0.10;0.10;;;;;;;24.25;56.01;102005.19;10404574;28;20496;-61
2021/08/11 10:48:24;;;;;;;0.10;0.10;;;;;;;24.59;55.11;102005.78;10389315;28;20200;-61
2021/08/11 10:53:25;;;;;;;0.00;0.00;;;;;;;25.11;55.22;102000.00;10412545;28;20072;-61
2021/08/11 10:58:35;;;;;;;0.10;0.10;;;;;;;24.95;52.91;102004.97;10413639;28;20022;-61
2021/08/11 11:03:52;;;;;;;0.00;0.00;;;;;;;25.11;55.00;102010.91;10410865;28;20033;-61
2021/08/11 11:09:16;;;;;;;0.10;0.10;;;;;;;25.08;53.75;102002.13;10414640;28;20438;-60
2021/08/11 11:14:47;;;;;;;0.10;0.10;;;;;;;25.05;54.25;102007.19;10412917;28;20037;-61
2021/08/11 11:20:02;;;;;;;0.10;0.10;;;;;;;25.11;54.73;102009.00;10402482;28;20461;-62
2021/08/11 11:25:10;;;;;;;0.00;0.00;;;;;;;25.18;55.23;102014.41;10402930;28;20029;-61
2021/08/11 11:30:30;;;;;;;0.00;0.00;;;;;;;24.45;56.32;102007.78;10396990;28;20088;-61
2021/08/11 11:35:30;;;;;;;0.10;0.10;;;;;;;23.74;56.27;102000.75;10410879;28;20435;-62
2021/08/11 11:40:31;;;;;;;0.00;0.00;;;;;;;23.54;58.08;102000.00;10394840;28;20029;-61
2021/08/11 11:45:45;;;;;;;0.10;0.10;;;;;;;24.14;58.61;102003.19;10410224;28;20033;-61
2021/08/11 11:51:00;;;;;;;0.08;0.08;;;;;;;24.57;56.56;102010.63;10404676;28;20025;-61
2021/08/11 11:56:12;;;;;;;0.10;0.10;;;;;;;25.00;55.05;102004.31;10409364;28;20032;-62
2021/08/11 12:01:13;;;;;;;0.10;0.10;;;;;;;25.08;52.14;101998.56;10410755;28;20040;-62
2021/08/11 12:06:13;;;;;;;0.00;0.00;;;;;;;24.26;53.99;102009.63;10405798;28;20136;-62
2021/08/11 12:11:14;;;;;;;0.10;0.10;;;;;;;24.26;57.56;102011.47;10409307;28;20026;-62
2021/08/11 12:16:17;;;;;;;0.10;0.10;;;;;;;24.34;55.71;102009.31;10400709;28;20041;-62
2021/08/11 12:21:20;;;;;;;0.00;0.00;;;;;;;24.47;56.03;101997.50;10407941;28;20488;-61
2021/08/11 12:26:29;;;;;;;0.00;0.00;;;;;;;24.56;56.43;101998.06;10407717;28;20109;-62
2021/08/11 12:31:32;;;;;;;0.00;0.00;;;;;;;24.71;54.89;102001.25;10427940;23;20259;-64
2021/08/11 12:36:38;;;;;;;0.00;0.00;;;;;;;24.69;52.53;101997.91;10379861;28;20882;-63
2021/08/11 12:41:44;;;;;;;0.10;0.10;;;;;;;24.38;55.16;101994.22;10387787;28;20020;-64
2021/08/11 12:46:44;;;;;;;0.00;0.00;;;;;;;24.60;54.11;101991.94;10398493;28;20049;-64
2021/08/11 12:51:46;;;;;;;0.00;0.00;;;;;;;25.07;54.61;101980.53;10393391;28;20302;-64
2021/08/11 12:56:58;;;;;;;0.00;0.00;;;;;;;24.94;51.71;101983.41;10389194;28;20295;-64
2021/08/11 13:01:58;;;;;;;0.00;0.00;;;;;;;24.94;53.86;101995.16;10396605;28;20033;-63
2021/08/11 13:07:05;;;;;;;0.00;0.00;;;;;;;25.21;54.06;101992.97;10390650;28;20021;-63
2021/08/11 13:12:07;;;;;;;0.00;0.00;;;;;;;25.35;50.41;101990.09;10382488;28;20041;-63
2021/08/11 13:17:07;;;;;;;0.10;0.10;;;;;;;25.24;51.51;101988.97;10385415;28;20037;-63
2021/08/11 13:22:18;;;;;;;0.00;0.00;;;;;;;24.82;53.29;101992.34;10402760;28;20535;-63
2021/08/11 13:27:19;;;;;;;0.10;0.10;;;;;;;24.71;53.85;102001.25;10390513;28;20113;-62
2021/08/11 13:32:19;;;;;;;0.10;0.10;;;;;;;24.87;53.95;101997.13;10386221;28;20041;-62
2021/08/11 13:37:20;;;;;;;0.10;0.10;;;;;;;24.89;50.91;102002.34;10393246;28;20041;-63
2021/08/11 13:42:23;;;;;;;0.00;0.00;;;;;;;24.91;52.82;102003.78;10379362;28;20440;-62
2021/08/11 13:47:23;;;;;;;0.00;0.00;;;;;;;24.96;52.68;102006.66;10381558;28;20040;-63
2021/08/11 13:52:24;;;;;;;0.10;0.10;;;;;;;24.95;52.49;101998.72;10386392;28;20283;-63
2021/08/11 13:57:34;;;;;;;0.00;0.00;;;;;;;24.94;52.62;101995.16;10384421;28;20029;-64
2021/08/11 14:02:34;;;;;;;0.00;0.00;;;;;;;24.85;54.46;102001.97;10393026;28;20029;-65
2021/08/11 14:07:35;;;;;;;0.10;0.10;;;;;;;24.84;51.38;101998.41;10401502;28;20037;-65
2021/08/11 14:12:35;;;;;;;0.00;0.00;;;;;;;24.83;53.00;101994.00;10406510;28;20099;-65
2021/08/11 14:17:36;;;;;;;0.00;0.00;;;;;;;24.89;54.36;101999.63;10406069;28;20256;-64
2021/08/11 14:22:36;;;;;;;0.10;0.10;;;;;;;24.85;49.39;102000.06;10379208;28;20116;-65
2021/08/11 14:27:36;;;;;;;0.00;0.00;;;;;;;24.79;50.94;102003.69;10394774;28;20463;-65
2021/08/11 14:32:37;;;;;;;0.00;0.00;;;;;;;24.66;50.85;101990.19;10409977;28;20128;-65
2021/08/11 14:37:37;;;;;;;0.00;0.00;;;;;;;24.59;52.29;101997.63;10412257;28;20040;-65
2021/08/11 14:42:37;;;;;;;0.10;0.10;;;;;;;24.48;52.44;101993.72;10413909;28;20033;-65
2021/08/11 14:47:38;;;;;;;0.00;0.00;;;;;;;24.53;53.10;101995.78;10394459;28;20033;-64
2021/08/11 14:52:38;;;;;;;0.00;0.00;;;;;;;24.52;54.25;101994.09;10398227;28;20029;-65
2021/08/11 14:57:38;;;;;;;0.10;0.10;;;;;;;24.58;52.32;101995.94;10414376;28;20021;-65
2021/08/11 15:02:38;;;;;;;0.03;0.03;;;;;;;24.57;52.20;101989.66;10388990;28;20034;-65
2021/08/11 15:07:39;;;;;;;0.00;0.00;;;;;;;24.37;54.11;101995.25;10380733;28;20034;-65
2021/08/11 15:12:39;;;;;;;0.00;0.00;;;;;;;24.23;52.44;102001.88;10396027;28;20065;-65
2021/08/11 15:17:40;;;;;;;0.00;0.00;;;;;;;24.01;53.62;101987.81;10413534;28;20264;-65
2021/08/11 15:22:40;;;;;;;0.08;0.08;;;;;;;23.82;54.05;101992.31;10410513;28;20036;-64
2021/08/11 15:27:41;;;;;;;0.10;0.10;;;;;;;23.64;53.81;101986.75;10409438;28;20037;-64
2021/08/11 15:32:41;;;;;;;0.00;0.00;;;;;;;23.39;54.47;101990.25;10411655;28;20037;-65
2021/08/11 15:37:42;;;;;;;0.10;0.10;;;;;;;23.11;56.11;101989.72;10410460;28;20036;-65
2021/08/11 15:42:43;;;;;;;0.00;0.00;;;;;;;22.88;58.00;101988.28;10420829;22;20476;-65
2021/08/11 15:47:44;;;;;;;0.00;0.00;;;;;;;22.88;57.84;101985.56;10432591;28;20782;-64
2021/08/11 15:52:44;;;;;;;0.00;0.00;;;;;;;23.15;56.04;101985.50;10415457;28;20033;-63
2021/08/11 15:57:44;;;;;;;0.00;0.00;;;;;;;23.24;55.44;101984.22;10451820;28;20032;-64
2021/08/11 16:02:45;;;;;;;0.00;0.00;;;;;;;23.26;55.33;101990.28;10417047;28;20029;-64
2021/08/11 16:07:46;;;;;;;0.10;0.10;;;;;;;23.21;54.07;101981.94;10415366;28;20037;-65
2021/08/11 16:12:46;;;;;;;0.08;0.08;;;;;;;23.18;55.65;101994.06;10426704;28;20437;-65
2021/08/11 16:17:46;;;;;;;0.00;0.00;;;;;;;23.09;54.56;101989.91;10402825;28;20045;-65
2021/08/11 16:22:47;;;;;;;0.10;0.10;;;;;;;23.01;54.39;101993.72;10423476;28;20403;-65
2021/08/11 16:27:48;;;;;;;0.10;0.10;;;;;;;22.94;56.78;101997.47;10408927;28;20036;-65
2021/08/11 16:32:48;;;;;;;0.00;0.00;;;;;;;22.77;58.18;102008.78;10416331;28;20088;-64
2021/08/11 16:37:48;;;;;;;0.00;0.00;;;;;;;22.62;56.74;102005.47;10415228;28;20029;-65
2021/08/11 16:42:49;;;;;;;0.00;0.00;;;;;;;22.50;56.84;101997.13;10418029;28;20048;-65
2021/08/11 16:47:50;;;;;;;0.00;0.00;;;;;;;22.43;57.36;102003.59;10414873;28;20468;-64
2021/08/11 16:52:51;;;;;;;0.00;0.00;;;;;;;22.30;57.53;102005.25;10407112;28;20044;-64
2021/08/11 16:57:51;;;;;;;0.00;0.00;;;;;;;22.15;57.96;102004.59;10417157;28;20550;-65
2021/08/11 17:02:51;;;;;;;0.10;0.10;;;;;;;21.95;56.31;102003.75;10420894;28;20479;-65
2021/08/11 17:07:52;;;;;;;0.00;0.00;;;;;;;21.81;58.15;102001.00;10415315;28;20033;-65
2021/08/11 17:12:52;;;;;;;0.00;0.00;;;;;;;21.74;59.81;101999.31;10410397;28;20041;-65
2021/08/11 17:17:52;;;;;;;0.00;0.00;;;;;;;21.60;60.62;102001.16;10435621;28;20065;-65
2021/08/11 17:22:53;;;;;;;0.00;0.00;;;;;;;21.44;60.84;102003.19;10427648;28;20035;-65
2021/08/11 17:27:53;;;;;;;0.00;0.00;;;;;;;21.31;61.42;101999.56;10400286;28;20037;-63
2021/08/11 17:32:53;;;;;;;0.00;0.00;;;;;;;21.17;61.87;102009.50;10408157;28;20136;-64
2021/08/11 17:37:54;;;;;;;0.10;0.10;;;;;;;21.08;62.64;102014.22;10400826;28;20041;-65
2021/08/11 17:42:54;;;;;;;0.05;0.05;;;;;;;20.99;63.81;102010.84;10400630;28;20029;-65
2021/08/11 17:47:55;;;;;;;0.10;0.10;;;;;;;20.90;63.71;102006.63;10404598;28;20041;-64
2021/08/11 17:52:55;;;;;;;0.00;0.00;;;;;;;20.82;63.89;102014.09;10402978;28;20048;-64
2021/08/11 17:57:55;;;;;;;0.08;0.08;;;;;;;20.73;65.03;102000.69;10401357;28;20544;-64
2021/08/11 18:02:56;;;;;;;0.10;0.10;;;;;;;20.61;66.48;102006.84;10395021;28;20025;-64
2021/08/11 18:07:56;;;;;;;0.00;0.00;;;;;;;20.48;68.00;102010.28;10414147;28;20064;-64
2021/08/11 18:12:56;;;;;;;0.10;0.10;;;;;;;20.33;68.51;102004.94;10416754;28;20040;-64
2021/08/11 18:17:57;;;;;;;0.00;0.00;;;;;;;20.21;68.98;102010.03;10417519;28;20450;-64
2021/08/11 18:22:58;;;;;;;0.00;0.00;;;;;;;20.07;70.30;102022.63;10416478;28;20065;-63
2021/08/11 18:27:58;;;;;;;0.10;0.10;;;;;;;19.95;71.05;102023.28;10416771;28;20456;-63
2021/08/11 18:32:58;;;;;;;0.10;0.10;;;;;;;19.83;72.08;102025.66;10416634;23;20050;-65
2021/08/11 18:37:59;;;;;;;0.10;0.10;;;;;;;19.67;72.54;102026.75;10378782;28;20040;-66
2021/08/11 18:42:59;;;;;;;0.10;0.10;;;;;;;19.50;73.42;102044.19;10397522;28;20033;-66
2021/08/11 18:47:59;;;;;;;0.00;0.00;;;;;;;19.28;74.78;102048.66;10413227;28;20034;-66
2021/08/11 18:53:00;;;;;;;0.00;0.00;;;;;;;19.00;75.88;102049.31;10380069;28;20061;-66
2021/08/11 18:58:01;;;;;;;0.03;0.03;;;;;;;18.72;76.76;102054.44;10371973;28;20029;-64
2021/08/11 19:03:01;;;;;;;0.00;0.00;;;;;;;18.46;78.62;102060.25;10370593;28;20052;-65
2021/08/11 19:08:02;;;;;;;0.00;0.00;;;;;;;18.27;79.22;102062.44;10396741;28;20298;-64
2021/08/11 19:13:03;;;;;;;0.10;0.10;;;;;;;18.08;79.92;102073.66;10377238;28;20136;-64
2021/08/11 19:18:03;;;;;;;0.00;0.00;;;;;;;17.73;80.38;102075.03;10370167;28;20057;-64
2021/08/11 19:23:04;;;;;;;0.10;0.10;;;;;;;17.34;81.30;102075.88;10369117;28;20524;-65
2021/08/11 19:28:04;;;;;;;0.10;0.10;;;;;;;17.17;82.27;102091.22;10370292;28;20069;-65
2021/08/11 19:33:05;;;;;;;0.10;0.10;;;;;;;16.93;83.90;102089.41;10367147;28;20527;-65
2021/08/11 19:38:05;;;;;;;0.10;0.10;;;;;;;16.74;84.66;102091.41;10370576;28;20507;-63
2021/08/11 19:43:06;;;;;;;0.10;0.10;;;;;;;16.60;84.87;102102.84;10368450;28;20033;-63
2021/08/11 19:48:06;;;;;;;0.03;0.03;;;;;;;16.45;86.61;102107.19;10370128;28;20034;-64
2021/08/11 19:53:06;;;;;;;0.00;0.00;;;;;;;16.45;86.72;102117.97;10366936;28;20038;-63
2021/08/11 19:58:22;;;;;;;0.00;0.00;;;;;;;16.43;86.24;102118.13;10369248;28;20033;-64
2021/08/11 20:03:22;;;;;;;0.10;0.10;;;;;;;16.38;86.65;102120.47;10371270;28;20117;-62
2021/08/11 20:08:22;;;;;;;0.00;0.00;;;;;;;16.23;85.94;102127.50;10391833;28;20037;-64
2021/08/11 20:13:23;;;;;;;0.10;0.10;;;;;;;16.06;87.06;102129.31;10408802;28;20056;-63
2021/08/11 20:18:23;;;;;;;0.00;0.00;;;;;;;15.94;87.70;102127.91;10367922;28;20360;-65
2021/08/11 20:23:24;;;;;;;0.10;0.10;;;;;;;15.81;87.27;102136.44;10367390;28;20435;-64
2021/08/11 20:28:24;;;;;;;0.00;0.00;;;;;;;15.70;88.26;102145.63;10367423;28;20042;-64
2021/08/11 20:33:24;;;;;;;0.10;0.10;;;;;;;15.66;88.74;102149.59;10366050;28;20116;-64
2021/08/11 20:38:24;;;;;;;0.10;0.10;;;;;;;15.63;89.07;102144.56;10367508;28;20038;-64
2021/08/11 20:43:27;;;;;;;0.10;0.10;;;;;;;15.52;89.47;102148.34;10367210;28;20052;-64
2021/08/11 20:48:28;;;;;;;0.00;0.00;;;;;;;15.45;89.79;102146.47;10367573;28;20350;-64
2021/08/11 20:53:28;;;;;;;0.10;0.10;;;;;;;15.38;88.87;102147.09;10403672;28;20055;-63
2021/08/11 20:58:29;;;;;;;0.10;0.10;;;;;;;15.33;89.29;102133.31;10393247;28;20029;-63
2021/08/11 21:03:29;;;;;;;0.00;0.00;;;;;;;15.34;88.93;102139.53;10360206;28;20137;-63
2021/08/11 21:08:31;;;;;;;0.10;0.10;;;;;;;15.30;88.83;102140.81;10396683;28;20125;-63
2021/08/11 21:13:33;;;;;;;0.10;0.10;;;;;;;15.19;89.18;102143.81;10366148;28;20475;-65
2021/08/11 21:18:33;;;;;;;0.10;0.10;;;;;;;15.03;90.04;102137.28;10366481;28;20400;-63
2021/08/11 21:23:34;;;;;;;0.10;0.10;;;;;;;14.91;90.26;102141.22;10365855;28;20059;-65
2021/08/11 21:28:34;;;;;;;0.00;0.00;;;;;;;14.79;90.52;102137.94;10372933;28;20026;-65
2021/08/11 21:33:34;;;;;;;0.10;0.10;;;;;;;14.73;90.89;102145.78;10364270;28;20099;-64
2021/08/11 21:38:35;;;;;;;0.10;0.10;;;;;;;14.65;90.98;102139.34;10363763;28;20524;-64
2021/08/11 21:43:35;;;;;;;0.07;0.07;;;;;;;14.57;91.44;102144.63;10364273;28;20038;-64
2021/08/11 21:48:36;;;;;;;0.10;0.10;;;;;;;14.54;91.66;102144.09;10364482;28;20030;-64
2021/08/11 21:53:36;;;;;;;0.10;0.10;;;;;;;14.50;92.04;102141.69;10365152;28;20033;-62
2021/08/11 21:58:36;;;;;;;0.00;0.00;;;;;;;14.49;92.01;102149.91;10365352;28;20061;-63
2021/08/11 22:03:37;;;;;;;0.10;0.10;;;;;;;14.42;91.89;102144.28;10363541;28;20116;-64
2021/08/11 22:08:37;;;;;;;0.03;0.03;;;;;;;14.37;91.80;102148.41;10356825;28;20056;-64
2021/08/11 22:13:38;;;;;;;0.10;0.10;;;;;;;14.30;92.23;102153.53;10333532;28;20453;-64
2021/08/11 22:18:40;;;;;;;0.00;0.00;;;;;;;14.22;92.25;102159.69;10322200;28;20434;-64
2021/08/11 22:23:40;;;;;;;0.10;0.10;;;;;;;14.11;92.06;102161.69;10326167;28;20090;-64
2021/08/11 22:28:41;;;;;;;0.10;0.10;;;;;;;13.98;91.77;102164.72;10324145;28;20113;-63
2021/08/11 22:33:42;;;;;;;0.10;0.10;;;;;;;13.95;91.75;102167.72;10346160;28;20038;-64
2021/08/11 22:38:42;;;;;;;0.10;0.10;;;;;;;13.90;91.67;102165.47;10336319;28;20031;-64
2021/08/11 22:43:43;;;;;;;0.10;0.10;;;;;;;13.77;90.98;102152.41;10340361;28;20030;-63
2021/08/11 22:48:43;;;;;;;0.10;0.10;;;;;;;13.65;92.11;102160.81;10323150;28;20043;-64
2021/08/11 22:53:43;;;;;;;0.10;0.10;;;;;;;13.61;92.48;102159.38;10335197;28;20704;-64
2021/08/11 22:58:44;;;;;;;0.10;0.10;;;;;;;13.58;93.11;102160.53;10330476;28;20269;-63
2021/08/11 23:03:44;;;;;;;0.10;0.10;;;;;;;13.52;92.50;102166.47;10329808;28;20153;-64
2021/08/11 23:08:45;;;;;;;0.10;0.10;;;;;;;13.38;93.21;102165.13;10354315;28;20026;-64